Supply, NC (28462)

8:16 PM EST on December 03, 2016 (GMT -0500)
Winding River Plantation | | Change Station

Elev 16 ft 33.98 °N, 78.25 °W | Updated 2 minutes ago

Clear
Clear
44.1 °F
Feels Like 44 °F
N
0.0
Wind Variable Wind from SSW

Today
High -- | Low -- °F
--% Chance of Precip.
Yesterday
High -- | Low -- °F
Precip. -- in
Pressure 30.26 in
Visibility 10.0 miles
Clouds Clear
Windchill 44 °F
Dew Point 42 °F
Humidity 92%
Rainfall 0.92 in
Snow Depth Not available.
7:02 AM 5:03 PM
Waxing Crescent, 18% visible
METAR KSUT 040110Z AUTO 00000KT 10SM CLR 08/03 A3026 RMK AO2 T00770029
Pressure 30.26 in
Visibility 10.0 miles
Clouds Clear
Windchill 44 °F
Dew Point 42 °F
Humidity 92%
Rainfall 0.92 in
Snow Depth Not available.
7:02 AM 5:03 PM
Waxing Crescent, 18% visible
METAR KSUT 040110Z AUTO 00000KT 10SM CLR 08/03 A3026 RMK AO2 T00770029

10-Day Weather Forecast

Almanac

Astronomy

Dec. 03, 2016 Rise Set
Actual Time
Civil Twilight
Nautical Twilight
Astronomical Twilight
Moon
Length of Visible Light
Length of Day
Tomorrow will be .
, % of the Moon is Illuminated

Today's Extremes

State Highs State Lows

Community

WunderPhotos

Upload Photos

1,955,536 photos uploaded!

WunderBlog® & News

Nearby

Air Quality

  Air Quality AQ Index Pollutant
Not available.

Snow Depth

Station Depth Elevation

Earthquake Activity

City Distance Mag. Time & Date
Minimum magnitude displayed is 2.5.

Coastal Water Temperatures

Place Temperature

Stations

Nearby Weather Stations

Station Location Temp. Windchill Dew Point Humidity Wind Precip. Elev Updated Type
                   

Watches & Warnings

There are currently no watches in effect.